Back to Top

Language: 

Current Local METAR Station Weather Reports...

Local METAR Reports

Local METAR Reports

 

EGCN - Doncaster Sheffield Airport, United Kingdom
Distance from station: E 20mi, 32km
Updated: Wed, 17-Oct-2018 11:50pm BST
Clear
Clear
 Wind from NW
Wind: NW 8 mph , 13 km/h
Temperature: 10°C
Wind Chill: 8°C
Dew Point: 9°C
Humidity: 94%
Barometer: 1027 hPa
Summary: Clear
Visibility: greater than 7 miles , 10 km
2018/10/17 22:50 EGCN 172250Z 32007KT CAVOK 10/09 Q1027
EGNM - Leeds Bradford International, United Kingdom
Distance from station: NNW 24mi, 39km
Updated: Wed, 17-Oct-2018 11:50pm BST
Few Clouds
Few Clouds
 Wind from W
Wind: W 7 mph , 11 km/h
Temperature: 7°C
Wind Chill: 5°C
Dew Point: 6°C
Humidity: 93%
Barometer: 1026 hPa
Clouds: Few Clouds
Visibility: 6 miles , 10 km
Cloud details: Few Clouds 1006 m
2018/10/17 22:50 EGNM 172250Z 28006KT 9999 FEW033 07/06 Q1026
 
EGCC - Manchester International, United Kingdom
Distance from station: WSW 35mi, 56km
Updated: Wed, 17-Oct-2018 11:50pm BST
Clear
Clear
 Wind from NNW
Wind: NNW 6 mph , 9 km/h
Temperature: 9°C
Wind Chill: 7°C
Dew Point: 7°C
Humidity: 87%
Barometer: 1027 hPa
Clouds: Clear
Visibility: 6 miles , 10 km
2018/10/17 22:50 EGCC 172250Z AUTO 33005KT 9999 NCD 09/07 Q1027 NOSIG
EGXU - Linton-On-Ouse RAF, United Kingdom
Distance from station: NNE 37mi, 60km
Updated: Wed, 17-Oct-2018 10:50pm BST
Few Clouds
Few Clouds
 Wind from NNW
Wind: NNW 5 mph , 7 km/h
Temperature: 8°C
Wind Chill: 7°C
Dew Point: 6°C
Humidity: 87%
Barometer: 1026 hPa
Clouds: Few Clouds
Visibility: 6 miles , 10 km
Cloud details: Few Clouds 1250 m
2018/10/17 21:50 EGXU 172150Z AUTO 33004KT 9999 // FEW041/// 08/06 Q1026
 
EGXP - Scampton RAF, United Kingdom
Distance from station: ESE 41mi, 66km
Updated: Wed, 17-Oct-2018 10:50pm BST
Mostly Cloudy
Mostly Cloudy
 Wind from NW
Wind: NW 8 mph , 13 km/h
Temperature: 10°C
Wind Chill: 8°C
Dew Point: 9°C
Humidity: 94%
Barometer: 1024 hPa
Clouds: Mostly Cloudy
Visibility: 6 miles , 10 km
Cloud details: Mostly Cloudy 945 m
2018/10/17 21:50 EGXP 172150Z AUTO 31007KT 9999 // BKN031/// 10/09 Q1024
EGNJ - Humberside Airport, United Kingdom
Distance from station: E 46mi, 74km
Updated: Wed, 17-Oct-2018 11:50pm BST
Overcast
Overcast
 Wind from varies
Wind: varies 2 mph , 4 km/h
Temperature: 10°C
Dew Point: 10°C
Humidity: 100%
Barometer: 1026 hPa
Clouds: Overcast
Visibility: 6 miles , 10 km
Cloud details: Mostly Cloudy 732 m
Overcast 1128 m
2018/10/17 22:50 EGNJ 172250Z AUTO VRB02KT 9999 BKN024/// OVC037/// 10/10 Q1026
 
EGXW - Waddington RAF, United Kingdom
Distance from station: ESE 46mi, 74km
Updated: Wed, 17-Oct-2018 10:50pm BST
Few Clouds
Few Clouds
 Wind from NW
Wind: NW 8 mph , 13 km/h
Temperature: 10°C
Wind Chill: 8°C
Dew Point: 9°C
Humidity: 94%
Barometer: 1025 hPa
Clouds: Few Clouds
Visibility: 6 miles , 10 km
Cloud details: Few Clouds 975 m
2018/10/17 21:50 EGXW 172150Z 31007KT 9999 FEW032 10/09 Q1025 BLU
EGXZ - Topcliffe RAF, United Kingdom
Distance from station: N 46mi, 75km
Updated: Wed, 17-Oct-2018 10:50pm BST
Few Clouds
Few Clouds
 Wind from NW
Wind: NW 6 mph , 9 km/h
Temperature: 8°C
Wind Chill: 6°C
Dew Point: 7°C
Humidity: 93%
Barometer: 1026 hPa
Clouds: Few Clouds
Visibility: 6 miles , 10 km
Cloud details: Few Clouds 1341 m
2018/10/17 21:50 EGXZ 172150Z AUTO 32005KT 9999 FEW044/// 08/07 Q1026
 
EGXV - Leconfield, United Kingdom
Distance from station: ENE 48mi, 77km
Updated: Wed, 17-Oct-2018 11:50pm BST
Partly Cloudy
Partly Cloudy
 Wind from NNW
Wind: NNW 3 mph , 6 km/h
Temperature: 11°C
Dew Point: 8°C
Humidity: 82%
Barometer: 1025 hPa
Clouds: Partly Cloudy
Visibility: 6 miles , 10 km
Cloud details: Mostly Cloudy 823 m
Partly Cloudy 1524 m
2018/10/17 22:50 EGXV 172250Z AUTO 33003KT 9999 BKN027/// SCT050/// 11/08 Q1025
EGNX - East Midlands, United Kingdom
Distance from station: S 50mi, 80km
Updated: Wed, 17-Oct-2018 11:50pm BST
Few Clouds
Few Clouds
 Wind from WNW
Wind: WNW 6 mph , 9 km/h
Temperature: 8°C
Wind Chill: 6°C
Dew Point: 7°C
Humidity: 93%
Barometer: 1026 hPa
Clouds: Few Clouds
Visibility: 6 miles , 10 km
Cloud details: Few Clouds 1280 m
2018/10/17 22:50 EGNX 172250Z 29005KT 9999 FEW042 08/07 Q1026

Metar display script from Saratoga-Weather.org

Data updates at regular intervals.